sensor_id;sensor_type;location;lat;lon;timestamp;P1;durP1;ratioP1;P2;durP2;ratioP2
21014;SDS011;19207;-23.482;-46.500;2022-11-25T00:02:31;18.65;;;8.85;;
21014;SDS011;19207;-23.482;-46.500;2022-11-25T00:05:17;15.50;;;8.15;;
21014;SDS011;19207;-23.482;-46.500;2022-11-25T00:08:03;15.52;;;7.22;;
21014;SDS011;19207;-23.482;-46.500;2022-11-25T00:10:50;11.75;;;6.15;;
21014;SDS011;19207;-23.482;-46.500;2022-11-25T00:13:37;16.00;;;6.60;;
21014;SDS011;19207;-23.482;-46.500;2022-11-25T00:16:23;15.82;;;7.65;;
21014;SDS011;19207;-23.482;-46.500;2022-11-25T00:19:10;17.02;;;8.32;;
21014;SDS011;19207;-23.482;-46.500;2022-11-25T00:21:57;11.35;;;6.80;;
21014;SDS011;19207;-23.482;-46.500;2022-11-25T00:24:44;13.35;;;6.70;;
21014;SDS011;19207;-23.482;-46.500;2022-11-25T00:27:30;11.73;;;6.32;;
21014;SDS011;19207;-23.482;-46.500;2022-11-25T00:30:17;13.10;;;7.03;;
21014;SDS011;19207;-23.482;-46.500;2022-11-25T00:33:03;12.55;;;6.05;;
21014;SDS011;19207;-23.482;-46.500;2022-11-25T00:35:50;9.15;;;5.90;;
21014;SDS011;19207;-23.482;-46.500;2022-11-25T00:38:36;10.35;;;5.47;;
21014;SDS011;19207;-23.482;-46.500;2022-11-25T00:41:22;10.95;;;6.53;;
21014;SDS011;19207;-23.482;-46.500;2022-11-25T00:44:28;10.90;;;6.18;;
21014;SDS011;19207;-23.482;-46.500;2022-11-25T00:47:20;12.82;;;5.82;;
21014;SDS011;19207;-23.482;-46.500;2022-11-25T00:50:06;7.60;;;4.40;;
21014;SDS011;19207;-23.482;-46.500;2022-11-25T00:52:55;7.72;;;4.20;;
21014;SDS011;19207;-23.482;-46.500;2022-11-25T00:55:41;10.38;;;5.15;;
21014;SDS011;19207;-23.482;-46.500;2022-11-25T00:58:53;7.53;;;4.60;;
21014;SDS011;19207;-23.482;-46.500;2022-11-25T01:01:40;8.25;;;4.75;;
21014;SDS011;19207;-23.482;-46.500;2022-11-25T01:04:26;10.40;;;5.20;;
21014;SDS011;19207;-23.482;-46.500;2022-11-25T01:07:12;9.35;;;4.87;;
21014;SDS011;19207;-23.482;-46.500;2022-11-25T01:09:59;10.30;;;5.10;;
21014;SDS011;19207;-23.482;-46.500;2022-11-25T01:12:46;10.13;;;4.87;;
21014;SDS011;19207;-23.482;-46.500;2022-11-25T01:15:35;17.65;;;8.98;;
21014;SDS011;19207;-23.482;-46.500;2022-11-25T01:18:21;15.73;;;7.53;;
21014;SDS011;19207;-23.482;-46.500;2022-11-25T01:21:18;10.48;;;4.85;;
21014;SDS011;19207;-23.482;-46.500;2022-11-25T01:24:05;5.45;;;3.00;;
21014;SDS011;19207;-23.482;-46.500;2022-11-25T01:26:52;8.30;;;3.25;;
21014;SDS011;19207;-23.482;-46.500;2022-11-25T01:29:40;6.18;;;2.90;;
21014;SDS011;19207;-23.482;-46.500;2022-11-25T01:32:27;3.83;;;2.50;;
21014;SDS011;19207;-23.482;-46.500;2022-11-25T01:35:13;6.40;;;2.20;;
21014;SDS011;19207;-23.482;-46.500;2022-11-25T01:38:00;3.80;;;2.20;;
21014;SDS011;19207;-23.482;-46.500;2022-11-25T01:40:46;6.53;;;3.10;;
21014;SDS011;19207;-23.482;-46.500;2022-11-25T01:43:33;6.25;;;2.92;;
21014;SDS011;19207;-23.482;-46.500;2022-11-25T01:46:24;6.47;;;3.00;;
21014;SDS011;19207;-23.482;-46.500;2022-11-25T01:49:12;5.50;;;2.65;;
21014;SDS011;19207;-23.482;-46.500;2022-11-25T01:54:54;4.15;;;2.10;;
21014;SDS011;19207;-23.482;-46.500;2022-11-25T01:57:42;4.60;;;1.90;;
21014;SDS011;19207;-23.482;-46.500;2022-11-25T02:00:31;2.95;;;2.00;;
21014;SDS011;19207;-23.482;-46.500;2022-11-25T02:03:21;2.70;;;1.70;;
21014;SDS011;19207;-23.482;-46.500;2022-11-25T02:09:00;2.20;;;1.60;;
21014;SDS011;19207;-23.482;-46.500;2022-11-25T02:11:49;2.37;;;1.50;;
21014;SDS011;19207;-23.482;-46.500;2022-11-25T02:14:37;2.03;;;1.60;;
21014;SDS011;19207;-23.482;-46.500;2022-11-25T02:17:24;2.40;;;1.75;;
21014;SDS011;19207;-23.482;-46.500;2022-11-25T02:20:11;2.83;;;1.87;;
21014;SDS011;19207;-23.482;-46.500;2022-11-25T02:23:00;2.30;;;1.80;;
21014;SDS011;19207;-23.482;-46.500;2022-11-25T02:25:48;3.35;;;2.03;;
21014;SDS011;19207;-23.482;-46.500;2022-11-25T02:28:35;3.47;;;1.95;;
21014;SDS011;19207;-23.482;-46.500;2022-11-25T02:31:22;4.05;;;1.80;;
21014;SDS011;19207;-23.482;-46.500;2022-11-25T02:34:08;3.45;;;1.95;;
21014;SDS011;19207;-23.482;-46.500;2022-11-25T02:36:55;5.78;;;2.03;;
21014;SDS011;19207;-23.482;-46.500;2022-11-25T02:39:41;4.85;;;2.15;;
21014;SDS011;19207;-23.482;-46.500;2022-11-25T02:42:28;5.05;;;2.10;;
21014;SDS011;19207;-23.482;-46.500;2022-11-25T02:45:15;3.53;;;2.08;;
21014;SDS011;19207;-23.482;-46.500;2022-11-25T02:48:02;2.60;;;1.85;;
21014;SDS011;19207;-23.482;-46.500;2022-11-25T02:50:49;2.28;;;1.60;;
21014;SDS011;19207;-23.482;-46.500;2022-11-25T02:53:35;6.18;;;1.87;;
21014;SDS011;19207;-23.482;-46.500;2022-11-25T02:56:23;3.05;;;1.60;;
21014;SDS011;19207;-23.482;-46.500;2022-11-25T02:59:10;6.35;;;1.80;;
21014;SDS011;19207;-23.482;-46.500;2022-11-25T03:01:56;3.70;;;1.80;;
21014;SDS011;19207;-23.482;-46.500;2022-11-25T03:04:43;3.67;;;1.85;;
21014;SDS011;19207;-23.482;-46.500;2022-11-25T03:07:29;5.22;;;1.90;;
21014;SDS011;19207;-23.482;-46.500;2022-11-25T03:10:16;6.97;;;2.05;;
21014;SDS011;19207;-23.482;-46.500;2022-11-25T03:13:04;5.32;;;1.73;;
21014;SDS011;19207;-23.482;-46.500;2022-11-25T03:15:50;3.75;;;1.98;;
21014;SDS011;19207;-23.482;-46.500;2022-11-25T03:18:36;4.75;;;1.90;;
21014;SDS011;19207;-23.482;-46.500;2022-11-25T03:21:23;5.30;;;1.92;;
21014;SDS011;19207;-23.482;-46.500;2022-11-25T03:24:09;3.17;;;2.00;;
21014;SDS011;19207;-23.482;-46.500;2022-11-25T03:26:57;8.52;;;2.12;;
21014;SDS011;19207;-23.482;-46.500;2022-11-25T03:29:43;3.78;;;1.90;;
21014;SDS011;19207;-23.482;-46.500;2022-11-25T03:32:30;4.00;;;2.22;;
21014;SDS011;19207;-23.482;-46.500;2022-11-25T03:35:16;4.60;;;2.40;;
21014;SDS011;19207;-23.482;-46.500;2022-11-25T03:38:03;5.25;;;2.42;;
21014;SDS011;19207;-23.482;-46.500;2022-11-25T03:40:51;5.00;;;2.20;;
21014;SDS011;19207;-23.482;-46.500;2022-11-25T03:43:37;5.78;;;2.60;;
21014;SDS011;19207;-23.482;-46.500;2022-11-25T03:46:23;5.62;;;2.37;;
21014;SDS011;19207;-23.482;-46.500;2022-11-25T03:49:10;5.82;;;2.53;;
21014;SDS011;19207;-23.482;-46.500;2022-11-25T03:51:56;4.03;;;2.20;;
21014;SDS011;19207;-23.482;-46.500;2022-11-25T03:54:43;4.68;;;2.53;;
21014;SDS011;19207;-23.482;-46.500;2022-11-25T03:57:29;2.85;;;2.12;;
21014;SDS011;19207;-23.482;-46.500;2022-11-25T04:00:16;4.55;;;2.15;;
21014;SDS011;19207;-23.482;-46.500;2022-11-25T04:03:02;2.72;;;1.80;;
21014;SDS011;19207;-23.482;-46.500;2022-11-25T04:05:48;2.33;;;1.90;;
21014;SDS011;19207;-23.482;-46.500;2022-11-25T04:08:35;5.55;;;1.90;;
21014;SDS011;19207;-23.482;-46.500;2022-11-25T04:11:22;5.55;;;2.75;;
21014;SDS011;19207;-23.482;-46.500;2022-11-25T04:14:29;5.30;;;2.12;;
21014;SDS011;19207;-23.482;-46.500;2022-11-25T04:17:16;7.28;;;2.20;;
21014;SDS011;19207;-23.482;-46.500;2022-11-25T04:20:03;5.45;;;2.10;;
21014;SDS011;19207;-23.482;-46.500;2022-11-25T04:22:49;3.20;;;2.05;;
21014;SDS011;19207;-23.482;-46.500;2022-11-25T04:25:36;3.12;;;1.90;;
21014;SDS011;19207;-23.482;-46.500;2022-11-25T04:28:24;3.92;;;1.77;;
21014;SDS011;19207;-23.482;-46.500;2022-11-25T04:31:10;4.68;;;1.87;;
21014;SDS011;19207;-23.482;-46.500;2022-11-25T04:33:57;5.75;;;2.10;;
21014;SDS011;19207;-23.482;-46.500;2022-11-25T04:36:43;4.72;;;1.92;;
21014;SDS011;19207;-23.482;-46.500;2022-11-25T04:39:30;3.95;;;1.90;;
21014;SDS011;19207;-23.482;-46.500;2022-11-25T04:42:17;5.78;;;3.40;;
21014;SDS011;19207;-23.482;-46.500;2022-11-25T04:45:20;4.30;;;2.55;;
21014;SDS011;19207;-23.482;-46.500;2022-11-25T04:48:06;5.15;;;2.53;;
21014;SDS011;19207;-23.482;-46.500;2022-11-25T04:50:53;4.93;;;2.22;;
21014;SDS011;19207;-23.482;-46.500;2022-11-25T04:53:39;4.78;;;2.30;;
21014;SDS011;19207;-23.482;-46.500;2022-11-25T04:56:28;4.78;;;2.35;;
21014;SDS011;19207;-23.482;-46.500;2022-11-25T04:59:15;4.10;;;2.28;;
21014;SDS011;19207;-23.482;-46.500;2022-11-25T05:02:24;7.18;;;2.00;;
21014;SDS011;19207;-23.482;-46.500;2022-11-25T05:05:11;6.95;;;2.55;;
21014;SDS011;19207;-23.482;-46.500;2022-11-25T05:07:57;4.82;;;2.30;;
21014;SDS011;19207;-23.482;-46.500;2022-11-25T05:10:44;6.43;;;2.72;;
21014;SDS011;19207;-23.482;-46.500;2022-11-25T05:13:31;10.52;;;2.90;;
21014;SDS011;19207;-23.482;-46.500;2022-11-25T05:16:18;13.50;;;4.15;;
21014;SDS011;19207;-23.482;-46.500;2022-11-25T05:19:05;10.80;;;3.00;;
21014;SDS011;19207;-23.482;-46.500;2022-11-25T05:21:51;10.57;;;3.03;;
21014;SDS011;19207;-23.482;-46.500;2022-11-25T05:24:38;9.07;;;3.12;;
21014;SDS011;19207;-23.482;-46.500;2022-11-25T05:27:25;7.60;;;3.08;;
21014;SDS011;19207;-23.482;-46.500;2022-11-25T05:30:12;10.02;;;3.15;;
21014;SDS011;19207;-23.482;-46.500;2022-11-25T05:32:59;14.85;;;6.05;;
21014;SDS011;19207;-23.482;-46.500;2022-11-25T05:36:06;18.23;;;5.20;;
21014;SDS011;19207;-23.482;-46.500;2022-11-25T05:38:52;14.43;;;3.78;;
21014;SDS011;19207;-23.482;-46.500;2022-11-25T05:41:38;9.68;;;4.07;;
21014;SDS011;19207;-23.482;-46.500;2022-11-25T05:44:25;13.20;;;4.65;;
21014;SDS011;19207;-23.482;-46.500;2022-11-25T05:47:11;14.50;;;5.00;;
21014;SDS011;19207;-23.482;-46.500;2022-11-25T05:49:58;11.68;;;4.00;;
21014;SDS011;19207;-23.482;-46.500;2022-11-25T05:52:44;9.52;;;4.40;;
21014;SDS011;19207;-23.482;-46.500;2022-11-25T05:55:31;9.18;;;4.00;;
21014;SDS011;19207;-23.482;-46.500;2022-11-25T05:58:17;15.52;;;4.20;;
21014;SDS011;19207;-23.482;-46.500;2022-11-25T06:01:05;9.32;;;4.35;;
21014;SDS011;19207;-23.482;-46.500;2022-11-25T06:03:52;15.02;;;4.55;;
21014;SDS011;19207;-23.482;-46.500;2022-11-25T06:06:39;10.13;;;4.87;;
21014;SDS011;19207;-23.482;-46.500;2022-11-25T06:09:25;14.18;;;5.30;;
21014;SDS011;19207;-23.482;-46.500;2022-11-25T06:12:12;13.55;;;4.93;;
21014;SDS011;19207;-23.482;-46.500;2022-11-25T06:14:59;11.07;;;5.30;;
21014;SDS011;19207;-23.482;-46.500;2022-11-25T06:17:47;15.38;;;5.10;;
21014;SDS011;19207;-23.482;-46.500;2022-11-25T06:20:33;12.63;;;5.57;;
21014;SDS011;19207;-23.482;-46.500;2022-11-25T06:23:20;14.25;;;6.25;;
21014;SDS011;19207;-23.482;-46.500;2022-11-25T06:26:07;14.90;;;6.00;;
21014;SDS011;19207;-23.482;-46.500;2022-11-25T06:28:55;12.27;;;5.22;;
21014;SDS011;19207;-23.482;-46.500;2022-11-25T06:31:42;16.67;;;5.50;;
21014;SDS011;19207;-23.482;-46.500;2022-11-25T06:34:28;14.80;;;5.60;;
21014;SDS011;19207;-23.482;-46.500;2022-11-25T06:37:14;15.75;;;7.18;;
21014;SDS011;19207;-23.482;-46.500;2022-11-25T06:40:01;16.77;;;7.30;;
21014;SDS011;19207;-23.482;-46.500;2022-11-25T06:42:49;19.45;;;7.62;;
21014;SDS011;19207;-23.482;-46.500;2022-11-25T06:45:35;20.75;;;7.87;;
21014;SDS011;19207;-23.482;-46.500;2022-11-25T06:48:22;35.88;;;15.25;;
21014;SDS011;19207;-23.482;-46.500;2022-11-25T06:51:11;22.67;;;9.18;;
21014;SDS011;19207;-23.482;-46.500;2022-11-25T06:53:58;18.67;;;7.80;;
21014;SDS011;19207;-23.482;-46.500;2022-11-25T06:56:45;17.20;;;7.60;;
21014;SDS011;19207;-23.482;-46.500;2022-11-25T06:59:35;28.10;;;10.95;;
21014;SDS011;19207;-23.482;-46.500;2022-11-25T07:02:23;28.30;;;12.02;;
21014;SDS011;19207;-23.482;-46.500;2022-11-25T07:05:10;26.12;;;8.90;;
21014;SDS011;19207;-23.482;-46.500;2022-11-25T07:07:56;14.55;;;6.25;;
21014;SDS011;19207;-23.482;-46.500;2022-11-25T07:10:43;13.68;;;5.22;;
21014;SDS011;19207;-23.482;-46.500;2022-11-25T07:13:29;17.77;;;5.72;;
21014;SDS011;19207;-23.482;-46.500;2022-11-25T07:16:16;10.00;;;4.35;;
21014;SDS011;19207;-23.482;-46.500;2022-11-25T07:19:03;11.73;;;4.00;;
21014;SDS011;19207;-23.482;-46.500;2022-11-25T07:21:50;6.93;;;3.85;;
21014;SDS011;19207;-23.482;-46.500;2022-11-25T07:24:36;8.32;;;3.72;;
21014;SDS011;19207;-23.482;-46.500;2022-11-25T07:27:23;11.32;;;4.15;;
21014;SDS011;19207;-23.482;-46.500;2022-11-25T07:30:10;10.65;;;5.22;;
21014;SDS011;19207;-23.482;-46.500;2022-11-25T07:32:57;10.55;;;3.70;;
21014;SDS011;19207;-23.482;-46.500;2022-11-25T07:35:44;6.30;;;2.53;;
21014;SDS011;19207;-23.482;-46.500;2022-11-25T07:38:30;6.85;;;3.17;;
21014;SDS011;19207;-23.482;-46.500;2022-11-25T07:41:18;9.20;;;3.97;;
21014;SDS011;19207;-23.482;-46.500;2022-11-25T07:44:05;12.10;;;3.87;;
21014;SDS011;19207;-23.482;-46.500;2022-11-25T07:46:53;11.23;;;3.72;;
21014;SDS011;19207;-23.482;-46.500;2022-11-25T07:49:40;8.18;;;4.07;;
21014;SDS011;19207;-23.482;-46.500;2022-11-25T07:52:26;9.73;;;4.00;;
21014;SDS011;19207;-23.482;-46.500;2022-11-25T07:55:13;11.50;;;4.40;;
21014;SDS011;19207;-23.482;-46.500;2022-11-25T07:57:59;15.00;;;5.40;;
21014;SDS011;19207;-23.482;-46.500;2022-11-25T08:00:46;11.27;;;5.12;;
21014;SDS011;19207;-23.482;-46.500;2022-11-25T08:03:33;10.23;;;5.32;;
21014;SDS011;19207;-23.482;-46.500;2022-11-25T08:06:21;14.10;;;5.37;;
21014;SDS011;19207;-23.482;-46.500;2022-11-25T08:09:12;12.70;;;4.62;;
21014;SDS011;19207;-23.482;-46.500;2022-11-25T08:11:58;10.93;;;4.60;;
21014;SDS011;19207;-23.482;-46.500;2022-11-25T08:14:45;7.72;;;4.22;;
21014;SDS011;19207;-23.482;-46.500;2022-11-25T08:17:31;12.48;;;6.03;;
21014;SDS011;19207;-23.482;-46.500;2022-11-25T08:20:18;13.20;;;6.53;;
21014;SDS011;19207;-23.482;-46.500;2022-11-25T08:23:05;14.10;;;7.82;;
21014;SDS011;19207;-23.482;-46.500;2022-11-25T08:25:51;20.42;;;9.07;;
21014;SDS011;19207;-23.482;-46.500;2022-11-25T08:28:38;18.67;;;9.15;;
21014;SDS011;19207;-23.482;-46.500;2022-11-25T08:31:29;24.77;;;11.18;;
21014;SDS011;19207;-23.482;-46.500;2022-11-25T08:34:18;28.42;;;11.98;;
21014;SDS011;19207;-23.482;-46.500;2022-11-25T08:37:04;25.25;;;12.35;;
21014;SDS011;19207;-23.482;-46.500;2022-11-25T08:39:51;21.95;;;12.50;;
21014;SDS011;19207;-23.482;-46.500;2022-11-25T08:42:37;24.33;;;11.35;;
21014;SDS011;19207;-23.482;-46.500;2022-11-25T08:45:24;22.70;;;11.93;;
21014;SDS011;19207;-23.482;-46.500;2022-11-25T08:48:11;19.37;;;11.40;;
21014;SDS011;19207;-23.482;-46.500;2022-11-25T08:50:57;24.77;;;11.75;;
21014;SDS011;19207;-23.482;-46.500;2022-11-25T08:53:44;26.15;;;11.90;;
21014;SDS011;19207;-23.482;-46.500;2022-11-25T08:56:30;19.27;;;11.18;;
21014;SDS011;19207;-23.482;-46.500;2022-11-25T08:59:17;18.17;;;11.57;;
21014;SDS011;19207;-23.482;-46.500;2022-11-25T09:02:04;17.98;;;11.27;;
21014;SDS011;19207;-23.482;-46.500;2022-11-25T09:04:51;19.10;;;10.98;;
21014;SDS011;19207;-23.482;-46.500;2022-11-25T09:07:37;16.90;;;9.02;;
21014;SDS011;19207;-23.482;-46.500;2022-11-25T09:10:23;14.25;;;8.10;;
21014;SDS011;19207;-23.482;-46.500;2022-11-25T09:13:09;13.00;;;7.25;;
21014;SDS011;19207;-23.482;-46.500;2022-11-25T09:15:56;11.27;;;6.85;;
21014;SDS011;19207;-23.482;-46.500;2022-11-25T09:18:43;12.55;;;6.68;;
21014;SDS011;19207;-23.482;-46.500;2022-11-25T09:21:30;11.85;;;6.40;;
21014;SDS011;19207;-23.482;-46.500;2022-11-25T09:24:16;11.98;;;6.55;;
21014;SDS011;19207;-23.482;-46.500;2022-11-25T09:27:02;12.02;;;6.80;;
21014;SDS011;19207;-23.482;-46.500;2022-11-25T09:29:49;9.88;;;5.78;;
21014;SDS011;19207;-23.482;-46.500;2022-11-25T09:32:35;12.27;;;5.32;;
21014;SDS011;19207;-23.482;-46.500;2022-11-25T09:35:22;8.90;;;4.78;;
21014;SDS011;19207;-23.482;-46.500;2022-11-25T09:38:09;9.05;;;5.80;;
21014;SDS011;19207;-23.482;-46.500;2022-11-25T09:40:58;13.93;;;5.35;;
21014;SDS011;19207;-23.482;-46.500;2022-11-25T09:44:00;9.15;;;3.70;;
21014;SDS011;19207;-23.482;-46.500;2022-11-25T09:53:04;9.45;;;2.75;;
21014;SDS011;19207;-23.482;-46.500;2022-11-25T09:55:57;8.13;;;3.05;;
21014;SDS011;19207;-23.482;-46.500;2022-11-25T09:58:51;9.07;;;3.65;;
21014;SDS011;19207;-23.482;-46.500;2022-11-25T10:01:43;5.85;;;3.08;;
21014;SDS011;19207;-23.482;-46.500;2022-11-25T10:04:33;9.43;;;3.10;;
21014;SDS011;19207;-23.482;-46.500;2022-11-25T10:07:25;8.63;;;3.78;;
21014;SDS011;19207;-23.482;-46.500;2022-11-25T10:10:27;6.37;;;3.25;;
21014;SDS011;19207;-23.482;-46.500;2022-11-25T10:16:33;11.63;;;4.47;;
21014;SDS011;19207;-23.482;-46.500;2022-11-25T10:22:13;12.35;;;4.95;;
21014;SDS011;19207;-23.482;-46.500;2022-11-25T10:25:11;8.38;;;4.45;;
21014;SDS011;19207;-23.482;-46.500;2022-11-25T10:31:05;7.28;;;4.10;;
21014;SDS011;19207;-23.482;-46.500;2022-11-25T10:33:53;8.70;;;4.50;;
21014;SDS011;19207;-23.482;-46.500;2022-11-25T10:36:41;9.15;;;4.03;;
21014;SDS011;19207;-23.482;-46.500;2022-11-25T10:39:28;12.65;;;4.45;;
21014;SDS011;19207;-23.482;-46.500;2022-11-25T10:42:23;13.27;;;6.07;;
21014;SDS011;19207;-23.482;-46.500;2022-11-25T10:45:09;12.55;;;6.65;;
21014;SDS011;19207;-23.482;-46.500;2022-11-25T10:56:58;13.27;;;7.75;;
21014;SDS011;19207;-23.482;-46.500;2022-11-25T10:59:58;13.93;;;7.53;;
21014;SDS011;19207;-23.482;-46.500;2022-11-25T11:02:45;14.60;;;7.60;;
21014;SDS011;19207;-23.482;-46.500;2022-11-25T11:05:32;8.23;;;5.70;;
21014;SDS011;19207;-23.482;-46.500;2022-11-25T11:11:19;12.73;;;5.87;;
21014;SDS011;19207;-23.482;-46.500;2022-11-25T11:14:11;13.50;;;6.45;;
21014;SDS011;19207;-23.482;-46.500;2022-11-25T11:16:57;8.57;;;6.15;;
21014;SDS011;19207;-23.482;-46.500;2022-11-25T11:19:43;10.70;;;6.75;;
21014;SDS011;19207;-23.482;-46.500;2022-11-25T11:25:37;13.25;;;7.82;;
21014;SDS011;19207;-23.482;-46.500;2022-11-25T11:28:25;13.30;;;9.35;;
21014;SDS011;19207;-23.482;-46.500;2022-11-25T11:45:33;12.68;;;7.25;;
21014;SDS011;19207;-23.482;-46.500;2022-11-25T11:48:28;15.65;;;7.62;;
21014;SDS011;19207;-23.482;-46.500;2022-11-25T11:57:06;15.20;;;8.00;;
21014;SDS011;19207;-23.482;-46.500;2022-11-25T12:00:02;14.30;;;8.43;;
21014;SDS011;19207;-23.482;-46.500;2022-11-25T12:03:02;14.38;;;6.70;;
21014;SDS011;19207;-23.482;-46.500;2022-11-25T12:05:50;8.88;;;4.75;;
21014;SDS011;19207;-23.482;-46.500;2022-11-25T12:08:51;7.07;;;4.85;;
21014;SDS011;19207;-23.482;-46.500;2022-11-25T12:11:43;9.38;;;4.05;;
21014;SDS011;19207;-23.482;-46.500;2022-11-25T12:14:42;6.18;;;3.42;;
21014;SDS011;19207;-23.482;-46.500;2022-11-25T12:17:35;5.57;;;3.75;;
21014;SDS011;19207;-23.482;-46.500;2022-11-25T12:20:29;9.98;;;4.80;;
21014;SDS011;19207;-23.482;-46.500;2022-11-25T12:23:26;10.70;;;4.75;;
21014;SDS011;19207;-23.482;-46.500;2022-11-25T12:26:16;9.13;;;5.32;;
21014;SDS011;19207;-23.482;-46.500;2022-11-25T12:29:06;9.50;;;4.45;;
21014;SDS011;19207;-23.482;-46.500;2022-11-25T12:49:40;7.25;;;2.72;;
21014;SDS011;19207;-23.482;-46.500;2022-11-25T12:55:32;10.57;;;4.82;;
21014;SDS011;19207;-23.482;-46.500;2022-11-25T12:58:38;7.37;;;4.90;;
21014;SDS011;19207;-23.482;-46.500;2022-11-25T13:01:32;8.30;;;5.45;;
21014;SDS011;19207;-23.482;-46.500;2022-11-25T13:04:31;9.35;;;5.20;;
21014;SDS011;19207;-23.482;-46.500;2022-11-25T13:07:24;7.78;;;4.03;;
21014;SDS011;19207;-23.482;-46.500;2022-11-25T13:15:44;7.07;;;4.78;;
21014;SDS011;19207;-23.482;-46.500;2022-11-25T13:18:32;8.43;;;3.85;;
21014;SDS011;19207;-23.482;-46.500;2022-11-25T13:21:22;10.15;;;3.92;;
21014;SDS011;19207;-23.482;-46.500;2022-11-25T13:24:24;8.10;;;4.12;;
21014;SDS011;19207;-23.482;-46.500;2022-11-25T13:27:30;5.72;;;3.60;;
21014;SDS011;19207;-23.482;-46.500;2022-11-25T13:36:21;7.28;;;3.65;;
21014;SDS011;19207;-23.482;-46.500;2022-11-25T13:39:12;6.55;;;3.92;;
21014;SDS011;19207;-23.482;-46.500;2022-11-25T13:44:52;7.57;;;4.30;;
21014;SDS011;19207;-23.482;-46.500;2022-11-25T13:47:47;8.27;;;4.50;;
21014;SDS011;19207;-23.482;-46.500;2022-11-25T13:50:34;7.18;;;4.25;;
21014;SDS011;19207;-23.482;-46.500;2022-11-25T13:53:25;6.12;;;4.00;;
21014;SDS011;19207;-23.482;-46.500;2022-11-25T13:56:13;6.90;;;4.00;;
21014;SDS011;19207;-23.482;-46.500;2022-11-25T14:01:59;8.90;;;4.00;;
21014;SDS011;19207;-23.482;-46.500;2022-11-25T14:08:06;5.82;;;3.72;;
21014;SDS011;19207;-23.482;-46.500;2022-11-25T14:22:50;7.97;;;3.95;;
21014;SDS011;19207;-23.482;-46.500;2022-11-25T14:25:45;7.35;;;3.55;;
21014;SDS011;19207;-23.482;-46.500;2022-11-25T14:28:35;7.95;;;2.92;;
21014;SDS011;19207;-23.482;-46.500;2022-11-25T14:34:44;4.65;;;2.50;;
21014;SDS011;19207;-23.482;-46.500;2022-11-25T14:37:46;7.10;;;2.40;;
21014;SDS011;19207;-23.482;-46.500;2022-11-25T14:43:24;4.78;;;2.30;;
21014;SDS011;19207;-23.482;-46.500;2022-11-25T14:46:16;3.28;;;2.10;;
21014;SDS011;19207;-23.482;-46.500;2022-11-25T14:49:04;4.62;;;2.70;;
21014;SDS011;19207;-23.482;-46.500;2022-11-25T14:51:50;5.95;;;2.20;;
21014;SDS011;19207;-23.482;-46.500;2022-11-25T14:54:42;5.87;;;2.40;;
21014;SDS011;19207;-23.482;-46.500;2022-11-25T14:57:31;6.53;;;3.25;;
21014;SDS011;19207;-23.482;-46.500;2022-11-25T15:00:18;10.20;;;3.40;;
21014;SDS011;19207;-23.482;-46.500;2022-11-25T15:03:05;6.40;;;3.58;;
21014;SDS011;19207;-23.482;-46.500;2022-11-25T15:05:53;10.30;;;3.70;;
21014;SDS011;19207;-23.482;-46.500;2022-11-25T15:08:42;11.18;;;3.72;;
21014;SDS011;19207;-23.482;-46.500;2022-11-25T15:11:29;7.05;;;3.60;;
21014;SDS011;19207;-23.482;-46.500;2022-11-25T15:14:26;10.27;;;3.05;;
21014;SDS011;19207;-23.482;-46.500;2022-11-25T15:17:20;8.20;;;3.60;;
21014;SDS011;19207;-23.482;-46.500;2022-11-25T15:20:10;8.85;;;3.25;;
21014;SDS011;19207;-23.482;-46.500;2022-11-25T15:22:57;9.05;;;3.30;;
21014;SDS011;19207;-23.482;-46.500;2022-11-25T15:25:50;12.40;;;3.60;;
21014;SDS011;19207;-23.482;-46.500;2022-11-25T15:28:37;7.50;;;3.55;;
21014;SDS011;19207;-23.482;-46.500;2022-11-25T15:31:25;6.70;;;2.80;;
21014;SDS011;19207;-23.482;-46.500;2022-11-25T15:34:12;9.77;;;4.12;;
21014;SDS011;19207;-23.482;-46.500;2022-11-25T15:36:59;9.95;;;4.53;;
21014;SDS011;19207;-23.482;-46.500;2022-11-25T15:39:47;14.45;;;4.07;;
21014;SDS011;19207;-23.482;-46.500;2022-11-25T15:42:33;7.75;;;2.85;;
21014;SDS011;19207;-23.482;-46.500;2022-11-25T15:45:19;6.70;;;2.90;;
21014;SDS011;19207;-23.482;-46.500;2022-11-25T15:48:09;4.57;;;2.53;;
21014;SDS011;19207;-23.482;-46.500;2022-11-25T15:51:04;4.25;;;2.40;;
21014;SDS011;19207;-23.482;-46.500;2022-11-25T15:53:55;10.40;;;2.87;;
21014;SDS011;19207;-23.482;-46.500;2022-11-25T15:56:47;5.78;;;2.90;;
21014;SDS011;19207;-23.482;-46.500;2022-11-25T15:59:41;6.28;;;3.15;;
21014;SDS011;19207;-23.482;-46.500;2022-11-25T16:02:31;7.00;;;4.07;;
21014;SDS011;19207;-23.482;-46.500;2022-11-25T16:11:11;8.23;;;4.10;;
21014;SDS011;19207;-23.482;-46.500;2022-11-25T16:17:22;9.63;;;5.97;;
21014;SDS011;19207;-23.482;-46.500;2022-11-25T16:20:17;10.23;;;6.03;;
21014;SDS011;19207;-23.482;-46.500;2022-11-25T16:23:07;9.88;;;5.00;;
21014;SDS011;19207;-23.482;-46.500;2022-11-25T16:26:02;8.20;;;5.10;;
21014;SDS011;19207;-23.482;-46.500;2022-11-25T16:28:58;10.65;;;5.20;;
21014;SDS011;19207;-23.482;-46.500;2022-11-25T16:31:45;11.52;;;5.28;;
21014;SDS011;19207;-23.482;-46.500;2022-11-25T16:34:31;12.05;;;6.60;;
21014;SDS011;19207;-23.482;-46.500;2022-11-25T16:37:18;18.35;;;9.35;;
21014;SDS011;19207;-23.482;-46.500;2022-11-25T16:40:05;17.87;;;11.75;;
21014;SDS011;19207;-23.482;-46.500;2022-11-25T16:42:52;26.42;;;15.45;;
21014;SDS011;19207;-23.482;-46.500;2022-11-25T16:45:38;25.52;;;16.67;;
21014;SDS011;19207;-23.482;-46.500;2022-11-25T16:48:24;25.75;;;16.00;;
21014;SDS011;19207;-23.482;-46.500;2022-11-25T16:51:17;28.83;;;17.30;;
21014;SDS011;19207;-23.482;-46.500;2022-11-25T16:54:04;34.90;;;19.00;;
21014;SDS011;19207;-23.482;-46.500;2022-11-25T16:56:53;29.50;;;17.48;;
21014;SDS011;19207;-23.482;-46.500;2022-11-25T16:59:40;26.45;;;14.00;;
21014;SDS011;19207;-23.482;-46.500;2022-11-25T17:02:28;21.80;;;13.40;;
21014;SDS011;19207;-23.482;-46.500;2022-11-25T17:08:01;21.12;;;12.02;;
21014;SDS011;19207;-23.482;-46.500;2022-11-25T17:10:47;20.55;;;12.57;;
21014;SDS011;19207;-23.482;-46.500;2022-11-25T17:13:34;20.33;;;11.80;;
21014;SDS011;19207;-23.482;-46.500;2022-11-25T17:16:22;20.27;;;11.02;;
21014;SDS011;19207;-23.482;-46.500;2022-11-25T17:19:11;19.27;;;11.80;;
21014;SDS011;19207;-23.482;-46.500;2022-11-25T17:21:59;17.92;;;11.75;;
21014;SDS011;19207;-23.482;-46.500;2022-11-25T17:24:46;18.98;;;9.40;;
21014;SDS011;19207;-23.482;-46.500;2022-11-25T17:27:33;16.50;;;8.13;;
21014;SDS011;19207;-23.482;-46.500;2022-11-25T17:30:21;17.08;;;7.75;;
21014;SDS011;19207;-23.482;-46.500;2022-11-25T17:33:12;12.37;;;8.02;;
21014;SDS011;19207;-23.482;-46.500;2022-11-25T17:35:59;19.12;;;8.18;;
21014;SDS011;19207;-23.482;-46.500;2022-11-25T17:38:46;15.35;;;8.07;;
21014;SDS011;19207;-23.482;-46.500;2022-11-25T17:41:32;14.20;;;7.57;;
21014;SDS011;19207;-23.482;-46.500;2022-11-25T17:44:26;16.67;;;7.40;;
21014;SDS011;19207;-23.482;-46.500;2022-11-25T17:47:14;14.60;;;8.40;;
21014;SDS011;19207;-23.482;-46.500;2022-11-25T17:50:04;13.20;;;5.90;;
21014;SDS011;19207;-23.482;-46.500;2022-11-25T17:52:50;15.00;;;5.75;;
21014;SDS011;19207;-23.482;-46.500;2022-11-25T17:55:37;12.32;;;4.55;;
21014;SDS011;19207;-23.482;-46.500;2022-11-25T17:58:24;13.70;;;5.30;;
21014;SDS011;19207;-23.482;-46.500;2022-11-25T18:01:11;10.15;;;5.25;;
21014;SDS011;19207;-23.482;-46.500;2022-11-25T18:03:59;15.70;;;5.90;;
21014;SDS011;19207;-23.482;-46.500;2022-11-25T18:06:47;13.57;;;6.57;;
21014;SDS011;19207;-23.482;-46.500;2022-11-25T18:09:34;14.05;;;5.37;;
21014;SDS011;19207;-23.482;-46.500;2022-11-25T18:12:27;12.32;;;4.93;;